Time;durP1;ratioP1;P1;durP2;ratioP2;P2;SDS_P1;SDS_P2;PMS_P1;PMS_P2;Temp;Humidity;BMP_temperature;BMP_pressure;BME280_temperature;BME280_humidity;BME280_pressure;Samples;Min_cycle;Max_cycle;Signal;HPM_P1;HPM_P2
2022/10/24 00:00:24;;;;;;;6.00;1.90;;;;;;;14.52;96.39;100092.73;105171;1288;59457;-76
2022/10/24 00:02:51;;;;;;;3.80;1.90;;;;;;;14.54;96.15;100087.55;105190;1291;60403;-76
2022/10/24 00:05:25;;;;;;;3.80;1.90;;;;;;;14.54;95.99;100098.05;105365;1297;73639;-76
2022/10/24 00:08:01;;;;;;;4.00;1.90;;;;;;;14.54;96.20;100098.06;104522;1298;71307;-76
2022/10/24 00:10:31;;;;;;;3.40;1.60;;;;;;;14.54;95.91;100098.51;103705;1307;72553;-76
2022/10/24 00:13:05;;;;;;;5.60;1.70;;;;;;;14.55;95.85;100103.27;103759;1303;61331;-75
2022/10/24 00:15:34;;;;;;;5.40;2.20;;;;;;;14.53;95.69;100102.21;105275;1274;58891;-76
2022/10/24 00:18:00;;;;;;;5.10;2.20;;;;;;;14.52;95.83;100107.08;105084;1294;61413;-76
2022/10/24 00:20:27;;;;;;;5.60;2.00;;;;;;;14.51;96.07;100108.91;105138;1296;61260;-76
2022/10/24 00:22:53;;;;;;;7.40;1.90;;;;;;;14.50;96.07;100108.39;104276;1298;59398;-75
2022/10/24 00:25:21;;;;;;;3.70;2.00;;;;;;;14.50;96.37;100103.63;103729;1303;61163;-76
2022/10/24 00:27:48;;;;;;;4.50;2.10;;;;;;;14.51;96.53;100100.38;104680;1298;61226;-76
2022/10/24 00:30:15;;;;;;;6.10;2.00;;;;;;;14.52;96.29;100102.55;103613;1303;61277;-75
2022/10/24 00:32:41;;;;;;;5.00;2.00;;;;;;;14.53;96.22;100100.73;103959;1294;70856;-75
2022/10/24 00:35:15;;;;;;;5.10;2.00;;;;;;;14.53;96.21;100110.84;103603;1300;72808;-75
2022/10/24 00:37:49;;;;;;;5.50;2.40;;;;;;;14.56;96.56;100116.42;104012;1301;61276;-76
2022/10/24 00:40:22;;;;;;;4.60;1.80;;;;;;;14.59;96.32;100120.80;104133;1293;60398;-75
2022/10/24 00:42:50;;;;;;;5.80;2.20;;;;;;;14.59;95.88;100113.65;105312;1298;73274;-76
2022/10/24 00:45:38;;;;;;;5.40;2.30;;;;;;;14.60;95.87;100115.91;104695;1286;69727;-76
2022/10/24 00:48:20;;;;;;;5.50;2.00;;;;;;;14.60;95.71;100109.30;104493;1295;71412;-75
2022/10/24 00:50:55;;;;;;;5.40;2.00;;;;;;;14.60;95.58;100103.48;103937;1303;61399;-75
2022/10/24 00:53:25;;;;;;;3.80;1.80;;;;;;;14.60;95.56;100107.41;105000;1298;58961;-75
2022/10/24 00:55:55;;;;;;;5.50;2.00;;;;;;;14.59;95.62;100106.60;105479;1298;73553;-76
2022/10/24 00:58:26;;;;;;;4.70;2.20;;;;;;;14.59;95.76;100103.23;105347;1296;70001;-76
2022/10/24 01:00:54;;;;;;;5.90;2.00;;;;;;;14.60;95.81;100098.21;105426;1290;72531;-76
2022/10/24 01:03:26;;;;;;;4.60;2.20;;;;;;;14.61;95.69;100087.12;105421;1295;60668;-76
2022/10/24 01:06:21;;;;;;;6.10;2.20;;;;;;;14.61;95.77;100087.61;104392;1288;61398;-75
2022/10/24 01:09:03;;;;;;;7.10;2.50;;;;;;;14.63;96.10;100074.16;103498;1305;73035;-75
2022/10/24 01:11:35;;;;;;;5.00;2.30;;;;;;;14.65;95.84;100063.14;104417;1295;68895;-75
2022/10/24 01:14:29;;;;;;;7.90;2.30;;;;;;;14.65;95.49;100072.80;103997;1293;73827;-75
2022/10/24 01:17:22;;;;;;;4.80;2.10;;;;;;;14.64;95.91;100077.04;105048;1301;60963;-76
2022/10/24 01:20:12;;;;;;;4.90;2.30;;;;;;;14.64;95.90;100085.58;104531;1303;59617;-75
2022/10/24 01:22:45;;;;;;;6.00;2.40;;;;;;;14.64;95.85;100087.71;102790;1288;72748;-75
2022/10/24 01:25:20;;;;;;;6.90;2.10;;;;;;;14.65;95.89;100090.41;102690;1297;70576;-76
2022/10/24 01:28:16;;;;;;;4.90;1.80;;;;;;;14.66;95.69;100088.80;102970;1303;72397;-74
2022/10/24 01:30:52;;;;;;;5.50;2.00;;;;;;;14.64;95.43;100090.66;103373;1306;61497;-75
2022/10/24 01:33:35;;;;;;;4.80;1.90;;;;;;;14.60;95.51;100080.64;102474;1306;61404;-75
2022/10/24 01:36:09;;;;;;;6.00;1.90;;;;;;;14.56;95.45;100077.66;103156;1305;74573;-75
2022/10/24 01:38:50;;;;;;;6.40;1.90;;;;;;;14.51;95.53;100073.37;104461;1304;69700;-75
2022/10/24 01:41:26;;;;;;;5.10;2.10;;;;;;;14.46;95.57;100063.38;103382;1298;71017;-76
2022/10/24 01:44:23;;;;;;;7.30;2.00;;;;;;;14.40;95.58;100056.61;103334;1305;61820;-78
2022/10/24 01:46:56;;;;;;;6.00;2.00;;;;;;;14.35;95.61;100059.63;105441;1301;60110;-77
2022/10/24 01:49:28;;;;;;;4.80;1.90;;;;;;;14.29;95.84;100065.05;105241;1303;75030;-78
2022/10/24 01:52:02;;;;;;;5.60;2.00;;;;;;;14.23;96.39;100062.77;105270;1296;70347;-77
2022/10/24 01:54:31;;;;;;;7.40;2.10;;;;;;;14.20;96.55;100058.04;105234;1291;70569;-76
2022/10/24 01:56:58;;;;;;;7.10;2.00;;;;;;;14.16;96.82;100051.86;104449;1298;61242;-76
2022/10/24 01:59:29;;;;;;;7.30;2.20;;;;;;;14.13;96.91;100047.53;104870;1296;59400;-76
2022/10/24 02:02:35;;;;;;;7.10;2.40;;;;;;;14.08;96.83;100037.71;104198;1303;72330;-76
2022/10/24 02:05:10;;;;;;;6.90;2.00;;;;;;;14.02;96.82;100033.89;104015;1297;70241;-76
2022/10/24 02:08:16;;;;;;;7.00;2.20;;;;;;;14.00;97.18;100038.58;103281;1298;72454;-75
2022/10/24 02:11:13;;;;;;;4.60;2.50;;;;;;;13.96;98.10;100041.42;104303;1299;60489;-76
2022/10/24 02:14:01;;;;;;;8.00;2.40;;;;;;;13.94;98.65;100038.95;103586;1305;59248;-77
2022/10/24 02:16:43;;;;;;;4.30;2.30;;;;;;;13.94;99.73;100036.80;104537;1309;74590;-77
2022/10/24 02:19:16;;;;;;;5.00;2.50;;;;;;;13.96;99.87;100037.79;104542;1312;71475;-77
2022/10/24 02:22:09;;;;;;;5.20;2.00;;;;;;;13.99;100.00;100034.41;103756;1312;71202;-76
2022/10/24 02:24:47;;;;;;;7.50;2.40;;;;;;;14.04;100.00;100029.61;104546;1305;60470;-77
2022/10/24 02:27:31;;;;;;;6.00;2.40;;;;;;;14.09;100.00;100021.05;104610;1302;59432;-77
2022/10/24 02:30:08;;;;;;;7.90;2.10;;;;;;;14.14;100.00;100019.34;104745;1303;73092;-76
2022/10/24 02:32:42;;;;;;;4.80;2.10;;;;;;;14.18;100.00;100017.02;104363;1315;70476;-77
2022/10/24 02:35:11;;;;;;;5.90;2.00;;;;;;;14.20;99.89;100006.11;104576;1307;71467;-77
2022/10/24 02:37:46;;;;;;;6.80;2.30;;;;;;;14.22;99.67;99988.59;104456;1308;62840;-77
2022/10/24 02:40:16;;;;;;;4.70;1.90;;;;;;;14.24;99.32;99983.70;104624;1302;61004;-77
2022/10/24 02:42:47;;;;;;;6.70;2.20;;;;;;;14.26;99.19;99996.55;104744;1302;74619;-77
2022/10/24 02:45:21;;;;;;;5.40;1.90;;;;;;;14.30;99.35;100006.27;105059;1302;69905;-77
2022/10/24 02:47:55;;;;;;;6.10;2.20;;;;;;;14.33;99.00;100012.07;104452;1304;73879;-75
2022/10/24 02:50:29;;;;;;;6.40;1.90;;;;;;;14.35;98.70;100011.28;103738;1292;61320;-75
2022/10/24 02:53:04;;;;;;;7.50;2.40;;;;;;;14.35;98.64;100000.06;103895;1288;59249;-76
2022/10/24 02:55:30;;;;;;;9.70;2.30;;;;;;;14.38;98.35;100002.42;105222;1298;73970;-77
2022/10/24 02:57:56;;;;;;;6.70;2.20;;;;;;;14.39;97.99;99999.47;105315;1298;58975;-77
2022/10/24 03:00:23;;;;;;;5.30;2.50;;;;;;;14.40;97.97;100008.40;105433;1296;58923;-77
2022/10/24 03:02:52;;;;;;;6.40;2.20;;;;;;;14.40;97.90;100004.47;105041;1291;241749;-77
2022/10/24 03:05:19;;;;;;;8.70;2.30;;;;;;;14.42;97.72;100001.38;105125;1291;60625;-76
2022/10/24 03:07:45;;;;;;;4.30;1.90;;;;;;;14.43;97.57;100001.16;103980;1300;61596;-75
2022/10/24 04:27:39;;;;;;;6.90;2.70;;;;;;;14.22;98.49;99989.21;99057;1360;71696;-76
2022/10/24 04:30:07;;;;;;;6.80;2.70;;;;;;;14.20;99.25;99993.57;102140;1331;60649;-75
2022/10/24 04:32:40;;;;;;;8.00;3.10;;;;;;;14.19;99.36;99990.29;102656;1320;60176;-76
2022/10/24 04:35:08;;;;;;;9.30;3.00;;;;;;;14.19;99.60;99990.83;102835;1321;75403;-76
2022/10/24 04:37:35;;;;;;;8.40;2.90;;;;;;;14.19;99.59;99986.59;102760;1331;72448;-76
2022/10/24 04:40:03;;;;;;;10.00;3.10;;;;;;;14.19;99.60;99982.45;102717;1331;58993;-76
2022/10/24 04:42:29;;;;;;;9.70;3.20;;;;;;;14.20;99.64;99982.65;102746;1331;62666;-76
2022/10/24 04:44:56;;;;;;;9.50;3.20;;;;;;;14.21;99.63;99985.39;102713;1331;59207;-76
2022/10/24 04:47:22;;;;;;;6.00;3.10;;;;;;;14.21;99.13;99981.48;102552;1332;58965;-76
2022/10/24 04:49:48;;;;;;;11.30;3.20;;;;;;;14.22;99.10;99980.52;102847;1337;58994;-76
2022/10/24 04:52:15;;;;;;;9.50;3.30;;;;;;;14.21;99.07;99979.94;102756;1331;58969;-76
2022/10/24 04:54:41;;;;;;;9.20;3.10;;;;;;;14.20;98.87;99977.23;102731;1334;59069;-76
2022/10/24 04:57:08;;;;;;;9.10;3.40;;;;;;;14.19;98.89;99976.13;102804;1324;59115;-76
2022/10/24 04:59:34;;;;;;;6.70;3.00;;;;;;;14.17;98.87;99976.88;102798;1330;59479;-75
2022/10/24 05:02:01;;;;;;;6.80;3.10;;;;;;;14.17;99.30;99983.15;102792;1330;59193;-76
2022/10/24 05:04:27;;;;;;;6.80;3.30;;;;;;;14.16;99.13;99991.62;102598;1328;59188;-76
2022/10/24 05:06:54;;;;;;;10.80;3.30;;;;;;;14.16;99.26;99997.54;102812;1330;60276;-76
2022/10/24 05:09:20;;;;;;;8.20;2.80;;;;;;;14.16;99.61;99998.30;102704;1331;59415;-76
2022/10/24 05:11:47;;;;;;;7.50;3.00;;;;;;;14.17;99.44;99993.38;102844;1330;59038;-75
2022/10/24 05:14:13;;;;;;;8.30;2.90;;;;;;;14.19;99.72;99988.16;102726;1331;59268;-76
2022/10/24 05:16:40;;;;;;;11.70;3.00;;;;;;;14.22;99.48;99983.33;102784;1330;59092;-76
2022/10/24 05:19:06;;;;;;;16.70;3.50;;;;;;;14.24;99.52;99981.11;102815;1331;58999;-73
2022/10/24 05:21:33;;;;;;;9.60;3.10;;;;;;;14.27;99.70;99980.46;102780;1329;59157;-73
2022/10/24 05:23:59;;;;;;;9.40;3.20;;;;;;;14.32;99.34;99980.35;102697;1324;59537;-73
2022/10/24 05:26:26;;;;;;;9.70;2.70;;;;;;;14.36;99.22;99976.58;102519;1331;59557;-73
2022/10/24 05:28:52;;;;;;;7.90;2.80;;;;;;;14.40;98.98;99972.23;102910;1325;59138;-73
2022/10/24 05:31:19;;;;;;;9.60;2.80;;;;;;;14.42;98.75;99967.61;103727;1315;60056;-73
2022/10/24 05:33:45;;;;;;;12.60;5.40;;;;;;;14.44;98.67;99968.80;103762;1312;59061;-73
2022/10/24 05:36:12;;;;;;;8.00;2.80;;;;;;;14.47;98.44;99965.16;103630;1313;60406;-73
2022/10/24 05:38:38;;;;;;;8.70;3.20;;;;;;;14.47;97.99;99963.77;103799;1319;59672;-73
2022/10/24 05:41:05;;;;;;;8.40;2.90;;;;;;;14.46;97.94;99964.05;103889;1306;59024;-73
2022/10/24 05:43:31;;;;;;;7.80;2.80;;;;;;;14.47;97.94;99961.47;103797;1313;58883;-74
2022/10/24 05:45:57;;;;;;;9.10;3.20;;;;;;;14.48;98.03;99958.30;103855;1314;59651;-73
2022/10/24 05:48:24;;;;;;;7.20;2.80;;;;;;;14.51;98.31;99961.15;103747;1316;58914;-73
2022/10/24 05:50:56;;;;;;;8.70;3.00;;;;;;;14.52;98.30;99962.70;103714;1313;59795;-73
2022/10/24 05:53:24;;;;;;;8.10;3.00;;;;;;;14.54;98.46;99964.70;103719;1312;71478;-74
2022/10/24 05:55:50;;;;;;;7.90;2.60;;;;;;;14.57;98.47;99965.71;103616;1315;59918;-73
2022/10/24 05:58:20;;;;;;;9.30;3.00;;;;;;;14.60;98.45;99969.84;103754;1316;59052;-74
2022/10/24 06:00:48;;;;;;;9.20;2.70;;;;;;;14.62;98.38;99969.49;103773;1312;76630;-73
2022/10/24 06:03:19;;;;;;;7.70;2.70;;;;;;;14.65;98.15;99973.33;103777;1317;70918;-73
2022/10/24 06:05:45;;;;;;;12.20;3.10;;;;;;;14.68;97.99;99972.77;103691;1314;59414;-73
2022/10/24 06:08:12;;;;;;;11.70;2.80;;;;;;;14.69;97.83;99974.90;103850;1319;59041;-73
2022/10/24 06:10:38;;;;;;;7.70;2.70;;;;;;;14.70;97.56;99976.37;103817;1312;59190;-73
2022/10/24 06:13:05;;;;;;;8.20;2.80;;;;;;;14.70;97.31;99978.34;103736;1317;58331;-73
2022/10/24 06:15:31;;;;;;;10.40;2.90;;;;;;;14.70;97.11;99984.58;103962;1310;58980;-73
2022/10/24 06:17:58;;;;;;;9.30;3.10;;;;;;;14.70;96.98;99983.52;103741;1315;59201;-73
2022/10/24 06:20:24;;;;;;;12.10;2.60;;;;;;;14.69;97.03;99986.80;103863;1316;59065;-73
2022/10/24 06:22:50;;;;;;;10.20;3.40;;;;;;;14.70;97.12;99980.31;103753;1313;59031;-73
2022/10/24 06:25:17;;;;;;;9.00;3.10;;;;;;;14.71;97.28;99979.77;103686;1310;59243;-73
2022/10/24 06:27:43;;;;;;;7.30;2.60;;;;;;;14.74;97.06;99972.99;103579;1315;58965;-73
2022/10/24 06:30:10;;;;;;;9.30;2.70;;;;;;;14.77;97.01;99968.51;104100;1312;58971;-73
2022/10/24 06:32:38;;;;;;;6.70;2.50;;;;;;;14.80;96.92;99970.90;103498;1305;59167;-73
2022/10/24 06:35:12;;;;;;;7.30;2.50;;;;;;;14.83;96.78;99980.35;104709;1305;59087;-73
2022/10/24 06:37:38;;;;;;;5.20;2.20;;;;;;;14.87;96.60;99974.64;104614;1305;72319;-73
2022/10/24 06:40:10;;;;;;;9.40;2.60;;;;;;;14.91;96.30;99972.18;104574;1305;69626;-73
2022/10/24 06:42:36;;;;;;;10.50;2.60;;;;;;;14.95;96.15;99972.05;104223;1313;70240;-73
2022/10/24 06:45:03;;;;;;;8.00;2.70;;;;;;;15.01;95.92;99973.51;102150;1307;61313;-73
2022/10/24 06:47:30;;;;;;;9.10;2.50;;;;;;;15.04;95.50;99973.38;101481;1312;61488;-72
2022/10/24 06:49:57;;;;;;;9.50;2.60;;;;;;;15.08;95.33;99978.52;101411;1312;73367;-73
2022/10/24 06:52:23;;;;;;;7.30;2.50;;;;;;;15.11;95.05;99981.71;102070;1304;61210;-73
2022/10/24 06:54:50;;;;;;;11.30;3.40;;;;;;;15.14;94.65;99991.62;104445;1307;61422;-73
2022/10/24 06:57:16;;;;;;;10.30;2.30;;;;;;;15.17;94.30;99991.44;103753;1304;61765;-74
2022/10/24 06:59:43;;;;;;;9.00;2.80;;;;;;;15.21;94.16;99993.15;101982;1306;61706;-73
2022/10/24 07:02:13;;;;;;;8.40;2.40;;;;;;;15.24;93.68;99990.20;101721;1305;74538;-73
2022/10/24 07:04:41;;;;;;;8.30;2.50;;;;;;;15.27;93.35;99996.77;101493;1313;69672;-74
2022/10/24 07:07:13;;;;;;;8.00;2.40;;;;;;;15.31;93.24;100000.67;101050;1318;72673;-74
2022/10/24 07:09:39;;;;;;;7.40;2.20;;;;;;;15.34;92.96;100003.85;101091;1312;61289;-74
2022/10/24 07:12:06;;;;;;;9.50;2.70;;;;;;;15.37;92.62;100003.78;101245;1309;61268;-73
2022/10/24 07:14:32;;;;;;;6.60;2.30;;;;;;;15.40;92.50;100004.89;101148;1312;61296;-73
2022/10/24 07:16:59;;;;;;;9.20;2.70;;;;;;;15.44;92.40;100008.80;101177;1312;61405;-73
2022/10/24 07:19:25;;;;;;;9.20;2.70;;;;;;;15.46;92.11;100008.48;101202;1312;61466;-73
2022/10/24 07:21:52;;;;;;;8.60;2.60;;;;;;;15.49;91.94;100008.73;101052;1312;61391;-73
2022/10/24 07:24:20;;;;;;;7.60;2.20;;;;;;;15.55;91.82;100009.25;101218;1303;61431;-73
2022/10/24 07:26:46;;;;;;;6.40;2.30;;;;;;;15.59;91.49;100005.58;101240;1312;73179;-74
2022/10/24 07:29:13;;;;;;;6.80;2.20;;;;;;;15.65;91.37;99997.93;101371;1310;69828;-73
2022/10/24 07:31:39;;;;;;;8.00;2.50;;;;;;;15.72;90.99;100003.53;101702;1303;62167;-74
2022/10/24 07:34:08;;;;;;;8.30;2.50;;;;;;;15.81;90.54;100011.66;101796;1309;61396;-74
2022/10/24 07:36:34;;;;;;;6.80;2.40;;;;;;;15.90;90.33;100015.23;101726;1303;61229;-74
2022/10/24 07:39:08;;;;;;;7.70;2.40;;;;;;;16.01;89.64;100012.84;101278;1310;75584;-73
2022/10/24 07:41:39;;;;;;;7.60;2.30;;;;;;;16.10;89.24;100017.14;101807;1309;61360;-73
2022/10/24 07:44:06;;;;;;;10.10;2.40;;;;;;;16.20;88.80;100011.45;101738;1306;72485;-74
2022/10/24 07:46:32;;;;;;;8.00;2.10;;;;;;;16.29;88.75;100011.68;101257;1303;61444;-73
2022/10/24 07:48:59;;;;;;;6.50;2.20;;;;;;;16.39;88.09;100017.05;101364;1309;61900;-73
2022/10/24 07:51:27;;;;;;;8.00;2.40;;;;;;;16.47;87.51;100015.56;101742;1311;61299;-74
2022/10/24 07:53:55;;;;;;;8.60;2.30;;;;;;;16.55;86.56;100018.48;101722;1309;68985;-73
2022/10/24 07:56:21;;;;;;;6.90;2.10;;;;;;;16.65;85.27;100021.83;101391;1310;73144;-73
2022/10/24 07:58:48;;;;;;;7.60;2.30;;;;;;;16.77;85.02;100020.55;101722;1306;61358;-73
2022/10/24 08:01:20;;;;;;;8.40;2.30;;;;;;;16.86;84.06;100019.88;101386;1310;61216;-73
2022/10/24 08:03:47;;;;;;;8.20;2.50;;;;;;;16.97;83.71;100021.48;101567;1310;72334;-73
2022/10/24 08:06:17;;;;;;;7.20;2.10;;;;;;;17.06;82.37;100015.12;101395;1310;71225;-73
2022/10/24 08:08:44;;;;;;;10.20;2.00;;;;;;;17.17;82.16;100013.02;101888;1309;71516;-74
2022/10/24 08:11:22;;;;;;;11.10;3.30;;;;;;;17.28;81.81;100006.71;101387;1310;61346;-74
2022/10/24 08:13:51;;;;;;;7.60;2.20;;;;;;;17.39;79.90;100004.56;101749;1306;61239;-73
2022/10/24 08:16:19;;;;;;;7.10;2.10;;;;;;;17.51;79.23;100006.38;101819;1309;73364;-75
2022/10/24 08:18:47;;;;;;;8.30;2.40;;;;;;;17.63;78.72;100001.30;101822;1303;69660;-74
2022/10/24 08:21:15;;;;;;;10.20;2.50;;;;;;;17.73;78.14;100002.50;101504;1301;72445;-73
2022/10/24 08:23:44;;;;;;;8.10;2.50;;;;;;;17.80;76.76;100002.43;101508;1310;61801;-74
2022/10/24 08:26:13;;;;;;;4.90;1.80;;;;;;;17.89;77.06;99995.21;101907;1306;61721;-74
2022/10/24 08:28:41;;;;;;;7.40;2.00;;;;;;;17.99;76.21;100001.23;101814;1306;73610;-73
2022/10/24 08:31:10;;;;;;;9.00;2.30;;;;;;;18.08;76.23;100002.80;101928;1301;71029;-74
2022/10/24 08:33:37;;;;;;;7.50;2.00;;;;;;;18.15;75.48;100005.41;101901;1300;72474;-75
2022/10/24 08:36:12;;;;;;;8.60;2.10;;;;;;;18.24;75.78;100005.77;101865;1304;61219;-74
2022/10/24 08:38:39;;;;;;;7.30;2.20;;;;;;;18.32;75.75;100003.17;101774;1306;61268;-75
2022/10/24 08:41:08;;;;;;;8.40;2.10;;;;;;;18.37;75.15;100005.92;101881;1309;73164;-74
2022/10/24 08:43:35;;;;;;;11.80;2.50;;;;;;;18.38;74.10;100004.61;102011;1306;71207;-75
2022/10/24 08:46:11;;;;;;;6.70;2.00;;;;;;;18.43;74.19;100004.30;101482;1310;71688;-74
2022/10/24 08:48:47;;;;;;;8.00;2.20;;;;;;;18.50;74.24;100000.98;101863;1307;61281;-74
2022/10/24 08:51:46;;;;;;;7.40;1.90;;;;;;;18.58;73.83;99991.33;101744;1307;61427;-73
2022/10/24 08:54:19;;;;;;;9.40;2.00;;;;;;;18.61;72.16;99990.42;101699;1307;74923;-73
2022/10/24 08:56:47;;;;;;;8.30;2.10;;;;;;;18.70;72.33;99989.20;101779;1307;68715;-73
2022/10/24 08:59:13;;;;;;;10.80;2.60;;;;;;;18.80;71.99;99991.00;101821;1299;72610;-73
2022/10/24 09:01:49;;;;;;;8.30;1.80;;;;;;;18.88;71.10;100002.45;101760;1307;61450;-74
2022/10/24 09:04:20;;;;;;;7.60;1.70;;;;;;;18.93;69.58;99998.02;101803;1306;61479;-72
2022/10/24 09:06:50;;;;;;;8.20;1.80;;;;;;;18.98;68.84;99999.00;101812;1299;75031;-72
2022/10/24 09:09:22;;;;;;;6.50;1.60;;;;;;;19.04;68.89;100000.27;101745;1307;69877;-72
2022/10/24 09:12:07;;;;;;;8.40;2.20;;;;;;;19.09;68.80;99998.19;101885;1299;70554;-72
2022/10/24 09:14:37;;;;;;;7.50;1.70;;;;;;;19.14;67.89;99997.48;101711;1306;62191;-74
2022/10/24 09:17:20;;;;;;;8.40;1.80;;;;;;;19.17;67.70;100000.37;101472;1310;62108;-73
2022/10/24 09:19:53;;;;;;;7.20;1.80;;;;;;;19.16;67.23;99992.84;101806;1307;74759;-72
2022/10/24 09:22:26;;;;;;;6.50;1.60;;;;;;;19.22;67.63;99991.83;101864;1309;70932;-73
2022/10/24 09:25:06;;;;;;;5.60;1.50;;;;;;;19.24;66.70;99985.48;101840;1307;71148;-72
2022/10/24 09:27:36;;;;;;;10.10;1.70;;;;;;;19.29;66.63;99983.52;101949;1300;61664;-72
2022/10/24 09:30:05;;;;;;;7.80;2.10;;;;;;;19.28;65.70;99990.58;101764;1305;61523;-73
2022/10/24 09:32:34;;;;;;;6.70;1.80;;;;;;;19.30;65.60;99986.02;101768;1298;74628;-72
2022/10/24 09:35:08;;;;;;;7.00;1.70;;;;;;;19.31;65.79;99983.09;101827;1306;71103;-73
2022/10/24 09:37:39;;;;;;;6.70;1.60;;;;;;;19.37;65.84;99986.70;101734;1306;72488;-73
2022/10/24 09:40:19;;;;;;;6.70;1.60;;;;;;;19.39;64.97;99994.83;101917;1305;61347;-73
2022/10/24 09:42:51;;;;;;;5.60;1.60;;;;;;;19.40;65.10;99998.14;101748;1306;61317;-73
2022/10/24 09:45:26;;;;;;;7.10;1.60;;;;;;;19.45;65.38;100002.60;101731;1306;73222;-74
2022/10/24 09:47:56;;;;;;;9.70;1.90;;;;;;;19.47;64.63;100000.60;101761;1305;70885;-73
2022/10/24 09:50:24;;;;;;;5.70;1.50;;;;;;;19.47;63.87;100007.80;101746;1306;71618;-73
2022/10/24 09:52:52;;;;;;;6.30;1.60;;;;;;;19.49;63.81;100003.48;101761;1297;61806;-73
2022/10/24 09:55:23;;;;;;;8.60;1.70;;;;;;;19.51;63.64;100004.09;101764;1305;61667;-74
2022/10/24 09:57:56;;;;;;;5.90;2.00;;;;;;;19.51;63.38;100005.91;101780;1303;72467;-74
2022/10/24 10:00:27;;;;;;;8.50;2.10;;;;;;;19.52;63.52;100007.60;101878;1307;69561;-72
2022/10/24 10:03:22;;;;;;;6.80;1.70;;;;;;;19.56;63.10;100008.29;101801;1306;71699;-73
2022/10/24 10:05:53;;;;;;;7.60;1.60;;;;;;;19.62;63.33;100009.27;101792;1306;62109;-74
2022/10/24 10:08:31;;;;;;;7.80;1.60;;;;;;;19.65;63.12;100010.98;101787;1307;61239;-73
2022/10/24 10:11:03;;;;;;;8.20;2.00;;;;;;;19.67;63.71;100011.70;101826;1297;73749;-72
2022/10/24 10:13:37;;;;;;;7.50;1.80;;;;;;;19.71;63.08;100017.23;101725;1307;70211;-73
2022/10/24 10:16:06;;;;;;;6.10;1.60;;;;;;;19.69;62.76;100010.44;101785;1298;71324;-74
2022/10/24 10:18:42;;;;;;;8.70;2.10;;;;;;;19.63;62.42;100020.52;101879;1307;61813;-74
2022/10/24 10:21:24;;;;;;;7.70;1.80;;;;;;;19.65;63.20;100009.63;101847;1306;61305;-72
2022/10/24 10:23:55;;;;;;;6.10;1.60;;;;;;;19.67;63.34;100014.27;101743;1307;74496;-74
2022/10/24 10:26:40;;;;;;;6.00;1.40;;;;;;;19.73;63.58;100007.06;101775;1303;70996;-73
2022/10/24 10:29:15;;;;;;;8.40;1.70;;;;;;;19.81;62.42;100012.46;101774;1306;71102;-74
2022/10/24 10:31:47;;;;;;;6.20;1.60;;;;;;;19.90;61.86;100019.95;101840;1305;62076;-74
2022/10/24 10:34:38;;;;;;;8.10;1.90;;;;;;;19.90;62.20;100011.11;101854;1298;61412;-72
2022/10/24 10:37:14;;;;;;;6.90;1.60;;;;;;;19.90;62.55;100013.58;101578;1305;72137;-72
2022/10/24 10:39:59;;;;;;;7.20;1.60;;;;;;;19.90;62.58;100018.65;101813;1306;70952;-73
2022/10/24 10:42:32;;;;;;;7.10;1.50;;;;;;;19.88;62.73;100018.48;101836;1306;71209;-74
2022/10/24 10:45:34;;;;;;;8.40;1.80;;;;;;;19.94;63.06;100012.77;101751;1300;62260;-72
2022/10/24 10:48:14;;;;;;;7.40;1.70;;;;;;;20.05;62.91;100011.32;101696;1303;61353;-73
2022/10/24 10:50:57;;;;;;;8.10;2.00;;;;;;;20.08;62.99;100014.35;101885;1306;73922;-72
2022/10/24 10:53:41;;;;;;;5.80;1.70;;;;;;;20.14;62.63;100015.81;101795;1306;70903;-73
2022/10/24 10:56:20;;;;;;;6.30;1.70;;;;;;;20.14;62.53;100018.40;101794;1306;73797;-73
2022/10/24 10:59:02;;;;;;;8.40;1.70;;;;;;;20.08;61.50;100027.65;101712;1299;61843;-72
2022/10/24 11:01:59;;;;;;;9.40;2.10;;;;;;;20.01;61.45;100028.24;101890;1300;62590;-73
2022/10/24 11:04:52;;;;;;;5.20;1.40;;;;;;;19.97;61.22;100036.96;101801;1298;74364;-74
2022/10/24 11:07:21;;;;;;;7.10;1.70;;;;;;;19.87;60.09;100039.94;101714;1300;71222;-73
2022/10/24 11:09:52;;;;;;;8.40;1.70;;;;;;;19.85;59.98;100050.63;101782;1297;71512;-73
2022/10/24 11:12:28;;;;;;;8.70;1.80;;;;;;;19.78;59.95;100040.75;101785;1300;61950;-73
2022/10/24 11:15:18;;;;;;;6.20;1.60;;;;;;;19.70;60.37;100061.85;101900;1300;61151;-73
2022/10/24 11:18:12;;;;;;;5.00;1.40;;;;;;;19.65;60.90;100058.00;101775;1307;75969;-73
2022/10/24 11:20:50;;;;;;;7.90;1.40;;;;;;;19.66;59.94;100059.47;101708;1300;70910;-72
2022/10/24 11:23:38;;;;;;;5.60;1.30;;;;;;;19.67;59.30;100063.79;101861;1298;73046;-72
2022/10/24 11:26:15;;;;;;;5.10;1.20;;;;;;;19.76;59.46;100052.73;101716;1306;61377;-71
2022/10/24 11:28:52;;;;;;;6.00;1.70;;;;;;;20.16;59.15;100059.30;101786;1303;61734;-72
2022/10/24 11:31:26;;;;;;;6.40;1.30;;;;;;;20.37;57.64;100047.92;101774;1298;74640;-73
2022/10/24 11:34:02;;;;;;;6.60;1.30;;;;;;;20.51;57.38;100049.39;101881;1292;69964;-72
2022/10/24 11:37:13;;;;;;;6.00;1.40;;;;;;;20.58;56.33;100046.02;101768;1300;71293;-72
2022/10/24 11:39:56;;;;;;;6.50;1.70;;;;;;;20.56;56.79;100043.18;101726;1299;61426;-72
2022/10/24 11:42:46;;;;;;;6.10;1.40;;;;;;;20.46;57.48;100043.58;101834;1307;62718;-72
2022/10/24 11:45:18;;;;;;;5.50;1.40;;;;;;;20.37;57.56;100049.20;101862;1305;73421;-73
2022/10/24 11:47:55;;;;;;;4.90;1.30;;;;;;;20.38;57.88;100049.38;101803;1306;69572;-73
2022/10/24 11:50:47;;;;;;;5.40;1.20;;;;;;;20.29;57.80;100047.31;101644;1310;70683;-73
2022/10/24 11:53:19;;;;;;;4.80;1.20;;;;;;;20.22;58.47;100053.70;101718;1306;61432;-73
2022/10/24 11:55:56;;;;;;;5.50;1.60;;;;;;;20.13;58.32;100047.15;101819;1305;61207;-73
2022/10/24 11:58:26;;;;;;;6.60;1.40;;;;;;;20.10;59.05;100049.76;101726;1305;75300;-72
2022/10/24 12:01:09;;;;;;;6.80;1.50;;;;;;;20.07;59.77;100053.66;101766;1306;71524;-72
2022/10/24 12:04:01;;;;;;;5.80;1.50;;;;;;;20.06;59.44;100049.45;101750;1296;71538;-72
2022/10/24 12:06:39;;;;;;;6.80;1.60;;;;;;;19.96;59.53;100054.93;101885;1305;61534;-72
2022/10/24 12:09:15;;;;;;;5.80;1.30;;;;;;;19.89;60.23;100057.08;101733;1304;61410;-73
2022/10/24 12:12:08;;;;;;;4.60;1.20;;;;;;;19.83;60.40;100054.31;101859;1290;75789;-72
2022/10/24 12:14:53;;;;;;;7.40;1.80;;;;;;;19.75;59.61;100057.02;101687;1306;70230;-73
2022/10/24 12:17:41;;;;;;;7.60;1.40;;;;;;;19.79;59.23;100055.30;101787;1305;70387;-73
2022/10/24 12:20:13;;;;;;;3.60;0.90;;;;;;;19.88;57.99;100053.58;101887;1307;61293;-73
2022/10/24 12:22:42;;;;;;;7.90;1.50;;;;;;;19.90;57.78;100057.31;101794;1307;61434;-73
2022/10/24 12:25:12;;;;;;;6.50;1.00;;;;;;;19.86;57.58;100058.60;101771;1307;74280;-73
2022/10/24 12:27:40;;;;;;;6.40;1.20;;;;;;;19.87;57.18;100055.12;101781;1305;71025;-73
2022/10/24 12:30:15;;;;;;;3.70;1.00;;;;;;;20.01;56.64;100053.71;101687;1305;71590;-73
2022/10/24 12:32:49;;;;;;;6.90;1.40;;;;;;;20.74;55.39;100057.23;101841;1307;61303;-73
2022/10/24 12:35:25;;;;;;;4.60;1.10;;;;;;;21.72;52.67;100054.75;101715;1305;61406;-72
2022/10/24 12:37:57;;;;;;;6.00;1.20;;;;;;;21.88;52.12;100057.40;101867;1307;75206;-74
2022/10/24 12:40:51;;;;;;;5.60;1.30;;;;;;;21.85;52.79;100061.72;101711;1299;69914;-73
2022/10/24 12:43:37;;;;;;;5.40;1.60;;;;;;;22.00;51.97;100058.09;101793;1300;72491;-74
2022/10/24 12:46:15;;;;;;;4.00;1.10;;;;;;;22.31;50.74;100057.90;101772;1305;61794;-71
2022/10/24 12:48:57;;;;;;;6.40;1.10;;;;;;;22.75;49.08;100066.73;101783;1305;61734;-72
2022/10/24 12:51:28;;;;;;;7.00;1.10;;;;;;;23.36;47.00;100069.99;101740;1299;74049;-72
2022/10/24 12:54:10;;;;;;;5.70;1.30;;;;;;;22.76;47.07;100073.33;101964;1306;70026;-72
2022/10/24 12:56:48;;;;;;;5.80;0.90;;;;;;;22.06;48.01;100083.16;101754;1300;71598;-72
2022/10/24 12:59:17;;;;;;;6.80;1.10;;;;;;;21.67;49.48;100073.00;101713;1305;61309;-73
2022/10/24 13:01:46;;;;;;;5.50;1.10;;;;;;;21.46;50.23;100068.64;101789;1307;61332;-73
2022/10/24 13:04:28;;;;;;;5.40;1.20;;;;;;;21.39;50.76;100068.52;101879;1292;73452;-73